Time;durP1;ratioP1;P1;durP2;ratioP2;P2;SDS_P1;SDS_P2;PMS_P1;PMS_P2;Temp;Humidity;BMP_temperature;BMP_pressure;BME280_temperature;BME280_humidity;BME280_pressure;Samples;Min_cycle;Max_cycle;Signal;HPM_P1;HPM_P2
2022/05/30 00:04:03;;;;;;;1.70;0.30;;;10.40;99.90;;;;;;10255222;28;20045;-85
2022/05/30 00:09:05;;;;;;;1.63;0.30;;;10.30;99.90;;;;;;10258366;28;20235;-85
2022/05/30 00:14:08;;;;;;;0.68;0.30;;;10.30;99.90;;;;;;10260892;28;20101;-85
2022/05/30 00:19:10;;;;;;;3.50;0.30;;;10.20;99.90;;;;;;10258963;28;20065;-85
2022/05/30 00:24:13;;;;;;;1.65;0.25;;;10.30;99.90;;;;;;10257677;28;20050;-85
2022/05/30 00:29:16;;;;;;;3.67;0.30;;;10.30;99.90;;;;;;10275264;28;20047;-85
2022/05/30 00:34:21;;;;;;;0.93;0.20;;;10.30;99.90;;;;;;10273176;28;20081;-85
2022/05/30 00:39:24;;;;;;;1.42;0.28;;;10.20;99.90;;;;;;10266231;28;20466;-86
2022/05/30 00:44:26;;;;;;;0.68;0.28;;;10.00;99.90;;;;;;10258709;28;20194;-85
2022/05/30 00:49:28;;;;;;;1.95;0.30;;;9.80;99.90;;;;;;10253545;28;20070;-85
2022/05/30 00:54:43;;;;;;;2.35;0.32;;;9.70;99.90;;;;;;10282036;28;20106;-85
2022/05/30 00:59:52;;;;;;;1.10;0.25;;;9.70;99.90;;;;;;10286315;28;20035;-85
2022/05/30 01:10:19;;;;;;;4.05;0.40;;;9.40;99.90;;;;;;10272776;28;20086;-85
2022/05/30 01:15:26;;;;;;;0.93;0.30;;;9.40;99.90;;;;;;10263644;28;20137;-85
2022/05/30 01:20:52;;;;;;;0.90;0.20;;;9.30;99.90;;;;;;10274226;28;20054;-85
2022/05/30 01:26:13;;;;;;;2.05;0.40;;;9.30;99.90;;;;;;10274837;28;20666;-86
2022/05/30 01:31:16;;;;;;;0.50;0.30;;;9.20;99.90;;;;;;10268035;28;20695;-85
2022/05/30 01:36:24;;;;;;;0.93;0.40;;;9.10;99.90;;;;;;10302885;28;20054;-86
2022/05/30 01:41:30;;;;;;;1.80;0.30;;;8.90;99.90;;;;;;10283095;28;20058;-85
2022/05/30 01:46:32;;;;;;;0.45;0.30;;;8.80;99.90;;;;;;10300253;28;20489;-86
2022/05/30 01:51:35;;;;;;;2.17;0.40;;;8.80;99.90;;;;;;10289498;28;20063;-85
2022/05/30 01:56:36;;;;;;;0.70;0.50;;;8.80;99.90;;;;;;10303904;28;21151;-85
2022/05/30 02:01:44;;;;;;;1.83;0.47;;;8.70;99.90;;;;;;10286398;28;20665;-85
2022/05/30 02:06:50;;;;;;;3.90;0.40;;;8.70;99.90;;;;;;10299927;28;20078;-85
2022/05/30 02:11:52;;;;;;;1.02;0.38;;;8.70;99.90;;;;;;10282729;28;20511;-86
2022/05/30 02:17:00;;;;;;;0.70;0.40;;;8.60;99.90;;;;;;10280678;28;20434;-85
2022/05/30 02:22:04;;;;;;;0.40;0.30;;;8.70;99.90;;;;;;10288711;28;20061;-86
2022/05/30 02:27:08;;;;;;;1.65;0.75;;;8.70;99.90;;;;;;10296411;28;20046;-85
2022/05/30 02:32:11;;;;;;;1.70;0.70;;;8.80;99.90;;;;;;10286453;28;20051;-86
2022/05/30 02:37:14;;;;;;;3.38;0.30;;;8.80;99.90;;;;;;10287075;28;20054;-85
2022/05/30 02:42:16;;;;;;;8.43;0.40;;;8.80;99.90;;;;;;10283977;28;20137;-86
2022/05/30 02:47:22;;;;;;;0.70;0.50;;;9.00;99.90;;;;;;10283736;28;20073;-83
2022/05/30 02:52:24;;;;;;;0.90;0.35;;;9.00;99.90;;;;;;10299016;28;20125;-87
2022/05/30 02:57:26;;;;;;;1.00;0.40;;;9.00;99.90;;;;;;10292244;28;20144;-87
2022/05/30 03:02:28;;;;;;;1.88;0.30;;;9.10;99.90;;;;;;10279720;28;20118;-87
2022/05/30 03:07:33;;;;;;;3.20;0.40;;;9.10;99.90;;;;;;10287786;28;20158;-86
2022/05/30 03:12:35;;;;;;;2.50;0.40;;;9.10;99.90;;;;;;10298313;28;20096;-87
2022/05/30 03:17:40;;;;;;;0.70;0.43;;;9.00;99.90;;;;;;10283148;28;20062;-87
2022/05/30 03:22:42;;;;;;;1.40;0.40;;;9.00;99.90;;;;;;10288900;28;20049;-87
2022/05/30 03:27:45;;;;;;;1.70;0.40;;;9.10;99.90;;;;;;10281880;28;20054;-88
2022/05/30 03:32:48;;;;;;;0.80;0.50;;;9.20;99.90;;;;;;10302079;28;20065;-88
2022/05/30 03:37:51;;;;;;;3.33;0.50;;;9.20;99.90;;;;;;10285996;28;20106;-87
2022/05/30 03:42:54;;;;;;;3.60;0.70;;;9.20;99.90;;;;;;10293826;28;20043;-87
2022/05/30 03:47:59;;;;;;;1.20;0.43;;;9.30;99.90;;;;;;10279982;28;20675;-88
2022/05/30 03:53:10;;;;;;;0.80;0.32;;;9.20;99.90;;;;;;10279262;28;20074;-87
2022/05/30 03:58:14;;;;;;;9.30;0.95;;;9.30;99.90;;;;;;10295793;28;20117;-87
2022/05/30 04:03:16;;;;;;;1.25;0.40;;;9.20;99.90;;;;;;10263145;28;20077;-87
2022/05/30 04:08:19;;;;;;;1.60;0.35;;;9.30;99.90;;;;;;10284071;28;21910;-87
2022/05/30 04:13:21;;;;;;;1.85;0.40;;;9.40;99.90;;;;;;10283308;28;20063;-88
2022/05/30 04:18:24;;;;;;;1.02;0.50;;;9.50;99.90;;;;;;10276529;28;20043;-88
2022/05/30 04:23:26;;;;;;;0.50;0.40;;;9.60;99.90;;;;;;10293387;28;20057;-84
2022/05/30 04:28:28;;;;;;;1.88;0.80;;;9.70;99.90;;;;;;10292943;28;20046;-87
2022/05/30 04:33:32;;;;;;;1.10;0.43;;;9.80;99.90;;;;;;10300560;28;20074;-87
2022/05/30 04:38:34;;;;;;;5.22;0.50;;;9.90;99.90;;;;;;10283813;28;20114;-85
2022/05/30 04:43:36;;;;;;;0.73;0.40;;;10.00;99.90;;;;;;10304247;28;20054;-85
2022/05/30 04:48:39;;;;;;;1.13;0.50;;;10.20;99.90;;;;;;10298211;28;20058;-85
2022/05/30 04:53:41;;;;;;;1.23;0.40;;;10.30;99.90;;;;;;10292777;28;20585;-87
2022/05/30 04:58:44;;;;;;;0.55;0.40;;;10.40;99.90;;;;;;10290316;28;20059;-85
2022/05/30 05:03:46;;;;;;;2.08;0.60;;;10.50;99.90;;;;;;10285050;28;20054;-87
2022/05/30 05:08:51;;;;;;;1.15;0.40;;;10.70;99.90;;;;;;10308260;28;20055;-88
2022/05/30 05:13:53;;;;;;;1.83;0.40;;;10.80;99.90;;;;;;10279064;28;20054;-86
2022/05/30 05:18:56;;;;;;;2.35;0.60;;;10.90;99.90;;;;;;10292121;28;20520;-87
2022/05/30 05:23:59;;;;;;;3.22;0.88;;;11.00;99.90;;;;;;10273841;28;20046;-90
2022/05/30 05:29:01;;;;;;;1.52;0.40;;;11.20;99.90;;;;;;10294246;28;20482;-88
2022/05/30 05:34:05;;;;;;;1.20;0.40;;;11.30;99.90;;;;;;10272159;28;20137;-88
2022/05/30 05:39:08;;;;;;;0.57;0.32;;;11.40;99.90;;;;;;10278147;28;20054;-89
2022/05/30 05:44:11;;;;;;;4.85;0.50;;;11.50;99.90;;;;;;10269359;28;20823;-89
2022/05/30 05:49:13;;;;;;;1.33;0.65;;;11.60;99.90;;;;;;10307637;28;20070;-88
2022/05/30 05:54:15;;;;;;;2.42;0.30;;;11.60;99.90;;;;;;10265067;28;20065;-87
2022/05/30 05:59:17;;;;;;;2.65;0.40;;;11.50;99.90;;;;;;10286196;28;20066;-87
2022/05/30 06:04:19;;;;;;;1.40;0.30;;;11.50;99.90;;;;;;10271394;28;20042;-88
2022/05/30 06:09:21;;;;;;;3.10;0.50;;;11.60;99.90;;;;;;10297421;28;20058;-87
2022/05/30 06:14:23;;;;;;;3.45;0.30;;;11.60;99.90;;;;;;10282098;28;21703;-88
2022/05/30 06:19:25;;;;;;;1.65;0.30;;;11.60;99.90;;;;;;10276798;28;20042;-88
2022/05/30 06:24:27;;;;;;;3.13;0.40;;;11.90;99.90;;;;;;10281998;28;20093;-87
2022/05/30 06:29:29;;;;;;;3.33;0.52;;;11.90;99.90;;;;;;10267137;28;20053;-87
2022/05/30 06:34:31;;;;;;;0.73;0.30;;;12.10;99.90;;;;;;10283248;28;20073;-87
2022/05/30 06:39:32;;;;;;;1.85;0.50;;;12.20;99.90;;;;;;10304283;28;20069;-86
2022/05/30 06:44:35;;;;;;;3.80;0.32;;;12.50;99.90;;;;;;10288645;28;20059;-86
2022/05/30 06:49:37;;;;;;;1.92;0.40;;;12.50;99.90;;;;;;10279171;28;20077;-85
2022/05/30 06:54:39;;;;;;;4.35;0.40;;;12.60;99.90;;;;;;10281922;28;20050;-86
2022/05/30 06:59:41;;;;;;;2.92;0.40;;;12.70;99.90;;;;;;10266956;28;20070;-86
2022/05/30 07:04:47;;;;;;;0.82;0.30;;;12.70;99.90;;;;;;10280695;28;20050;-86
2022/05/30 07:09:49;;;;;;;1.13;0.32;;;12.90;99.90;;;;;;10280008;28;20505;-86
2022/05/30 07:14:51;;;;;;;2.28;0.20;;;13.00;99.90;;;;;;10282851;28;20142;-86
2022/05/30 07:19:53;;;;;;;1.42;0.30;;;13.10;99.90;;;;;;10261888;28;20059;-87
2022/05/30 07:24:55;;;;;;;1.75;0.30;;;13.20;99.90;;;;;;10289197;28;20456;-86
2022/05/30 07:29:57;;;;;;;3.58;0.38;;;13.30;99.30;;;;;;10279672;28;20050;-86
2022/05/30 07:34:59;;;;;;;5.80;0.30;;;13.20;99.20;;;;;;10294762;28;20517;-85
2022/05/30 07:40:03;;;;;;;3.55;0.30;;;13.40;99.80;;;;;;10278354;28;20042;-86
2022/05/30 07:45:05;;;;;;;1.17;0.35;;;13.60;99.50;;;;;;10286691;28;20089;-86
2022/05/30 07:50:08;;;;;;;1.42;0.30;;;13.80;96.50;;;;;;10277122;28;20049;-86
2022/05/30 07:55:10;;;;;;;4.75;0.30;;;13.90;96.50;;;;;;10292508;28;20061;-86
2022/05/30 08:00:13;;;;;;;3.92;0.40;;;13.90;95.10;;;;;;10287356;28;20070;-86
2022/05/30 08:05:16;;;;;;;3.67;0.43;;;14.20;92.30;;;;;;10275505;28;20448;-86
2022/05/30 08:10:19;;;;;;;3.55;0.20;;;14.40;91.50;;;;;;10276892;28;20054;-86
2022/05/30 08:15:21;;;;;;;1.63;0.22;;;14.50;92.00;;;;;;10289743;28;20142;-86
2022/05/30 08:20:25;;;;;;;1.85;0.35;;;14.70;91.30;;;;;;10275708;28;20698;-86
2022/05/30 08:25:27;;;;;;;1.02;0.20;;;14.60;89.50;;;;;;10288569;28;20058;-86
2022/05/30 08:30:29;;;;;;;3.53;0.40;;;14.80;89.10;;;;;;10274117;28;20062;-86
2022/05/30 08:35:31;;;;;;;2.33;0.30;;;14.90;87.30;;;;;;10276281;28;20153;-86
2022/05/30 08:46:08;;;;;;;3.67;0.50;;;15.00;87.50;;;;;;10269212;28;21161;-86
2022/05/30 08:51:29;;;;;;;0.65;0.20;;;15.10;85.80;;;;;;10273887;28;20057;-86
2022/05/30 08:56:42;;;;;;;5.57;0.30;;;15.10;84.40;;;;;;10287878;28;20058;-86
2022/05/30 09:01:52;;;;;;;2.08;0.30;;;15.10;85.30;;;;;;10266537;28;20046;-86
2022/05/30 09:07:08;;;;;;;2.05;0.17;;;15.10;84.50;;;;;;10279973;28;20077;-86
2022/05/30 09:12:25;;;;;;;2.15;0.30;;;15.00;79.80;;;;;;10270545;28;20134;-86
2022/05/30 09:17:37;;;;;;;1.55;0.20;;;15.00;78.40;;;;;;10281089;28;20437;-86
2022/05/30 09:22:39;;;;;;;2.67;0.30;;;15.00;79.80;;;;;;10298165;28;20058;-86
2022/05/30 09:27:41;;;;;;;0.52;0.20;;;15.00;81.60;;;;;;10283901;28;20055;-86
2022/05/30 09:33:09;;;;;;;0.82;0.20;;;15.00;82.00;;;;;;10282757;28;20483;-86
2022/05/30 09:38:22;;;;;;;3.80;0.28;;;15.00;82.30;;;;;;10290718;28;20066;-86
2022/05/30 09:43:30;;;;;;;0.57;0.20;;;14.90;82.70;;;;;;10269827;28;20572;-86
2022/05/30 09:48:32;;;;;;;2.05;0.30;;;15.10;81.80;;;;;;10298113;28;20125;-86
2022/05/30 09:53:44;;;;;;;1.58;0.40;;;15.20;81.40;;;;;;10283316;28;20050;-86
2022/05/30 09:58:48;;;;;;;3.33;0.40;;;15.30;81.60;;;;;;10295050;28;20138;-86
2022/05/30 10:03:56;;;;;;;0.80;0.25;;;15.40;80.50;;;;;;10280061;28;20429;-86
2022/05/30 10:09:17;;;;;;;2.45;0.20;;;15.60;80.00;;;;;;10295413;28;20053;-86
2022/05/30 10:14:23;;;;;;;0.98;0.20;;;15.80;75.80;;;;;;10279746;28;20413;-86
2022/05/30 10:19:31;;;;;;;3.50;0.22;;;16.10;75.90;;;;;;10280275;28;20050;-86
2022/05/30 10:30:52;;;;;;;2.17;0.20;;;16.80;74.20;;;;;;10290189;28;20054;-86
2022/05/30 10:36:03;;;;;;;1.42;0.28;;;17.20;70.60;;;;;;10295070;28;20070;-86
2022/05/30 10:41:26;;;;;;;0.75;0.20;;;17.50;68.40;;;;;;10287306;28;20062;-86
2022/05/30 10:46:33;;;;;;;1.80;0.20;;;17.40;67.20;;;;;;10294579;28;20060;-86
2022/05/30 10:51:50;;;;;;;7.35;2.08;;;17.40;67.40;;;;;;10294265;28;20138;-86
2022/05/30 10:56:59;;;;;;;3.33;1.30;;;17.10;68.30;;;;;;10297196;28;20134;-86
2022/05/30 11:02:11;;;;;;;0.30;0.30;;;16.90;69.40;;;;;;10287641;28;20042;-86
2022/05/30 11:07:38;;;;;;;1.52;0.30;;;16.40;70.00;;;;;;10277459;28;20046;-86
2022/05/30 11:12:45;;;;;;;4.15;0.30;;;16.00;69.70;;;;;;10283640;28;20185;-86
2022/05/30 11:17:54;;;;;;;2.08;0.35;;;16.20;73.40;;;;;;10295381;28;20090;-86
2022/05/30 11:22:56;;;;;;;5.35;0.40;;;16.00;78.40;;;;;;10294302;28;20065;-88
2022/05/30 11:28:17;;;;;;;1.02;0.20;;;16.20;78.10;;;;;;10289017;28;20078;-86
2022/05/30 11:33:35;;;;;;;2.55;0.20;;;15.90;77.70;;;;;;10287495;28;20043;-86
2022/05/30 11:39:19;;;;;;;2.25;0.20;;;16.10;77.80;;;;;;10276985;28;20413;-86
2022/05/30 11:44:40;;;;;;;3.50;0.20;;;15.90;76.70;;;;;;10281373;28;20050;-86
2022/05/30 11:49:59;;;;;;;2.83;0.20;;;15.90;79.40;;;;;;10263148;28;20658;-86
2022/05/30 11:55:21;;;;;;;2.40;0.20;;;16.00;77.70;;;;;;10264695;28;20493;-86
2022/05/30 12:00:34;;;;;;;1.75;0.30;;;16.20;76.40;;;;;;10279933;28;20053;-86
2022/05/30 12:05:51;;;;;;;0.75;0.10;;;16.10;77.50;;;;;;10280962;28;20053;-85
2022/05/30 12:11:05;;;;;;;1.23;0.20;;;16.40;77.00;;;;;;10280055;28;20354;-85
2022/05/30 12:16:16;;;;;;;1.55;0.20;;;16.50;75.20;;;;;;10279814;28;20133;-85
2022/05/30 12:26:56;;;;;;;1.15;0.38;;;16.80;71.50;;;;;;10280060;28;20043;-85
2022/05/30 12:32:32;;;;;;;0.43;0.15;;;17.30;71.40;;;;;;10298159;28;20141;-86
2022/05/30 12:37:51;;;;;;;1.00;0.20;;;17.30;68.20;;;;;;10271903;28;20065;-85
2022/05/30 12:43:07;;;;;;;2.15;0.30;;;17.20;68.20;;;;;;10271742;28;20050;-86
2022/05/30 12:48:20;;;;;;;2.20;0.20;;;17.40;65.90;;;;;;10293156;28;20076;-86
2022/05/30 12:53:44;;;;;;;0.30;0.20;;;17.50;66.70;;;;;;10296180;28;20038;-85
2022/05/30 12:58:46;;;;;;;1.20;0.22;;;17.40;64.70;;;;;;10289054;28;20065;-85
2022/05/30 13:04:08;;;;;;;0.22;0.20;;;17.40;66.30;;;;;;10289986;28;20059;-86
2022/05/30 13:09:18;;;;;;;3.42;0.17;;;17.60;66.00;;;;;;10298324;28;20054;-85
2022/05/30 13:14:39;;;;;;;3.03;0.20;;;18.20;63.70;;;;;;10296161;28;20126;-85
2022/05/30 13:19:45;;;;;;;0.22;0.13;;;18.00;63.40;;;;;;10293793;28;20456;-85
2022/05/30 13:24:47;;;;;;;0.73;0.30;;;18.40;63.60;;;;;;10290586;28;20057;-86
2022/05/30 13:29:48;;;;;;;2.85;0.30;;;17.90;62.30;;;;;;10298083;28;20058;-85
2022/05/30 13:34:54;;;;;;;2.78;1.05;;;18.30;64.40;;;;;;10307776;28;20129;-87
2022/05/30 13:40:04;;;;;;;1.42;0.65;;;19.20;61.20;;;;;;10276848;28;20038;-86
2022/05/30 13:45:08;;;;;;;1.58;0.20;;;19.20;58.30;;;;;;10280746;28;20486;-86
2022/05/30 13:50:11;;;;;;;1.55;0.13;;;19.70;59.40;;;;;;10302792;28;20054;-87
2022/05/30 13:55:23;;;;;;;0.50;0.22;;;19.90;58.80;;;;;;10306232;28;20053;-88
2022/05/30 14:00:36;;;;;;;1.20;0.20;;;20.20;56.70;;;;;;10298514;28;20062;-88
2022/05/30 14:05:41;;;;;;;2.03;0.25;;;19.90;57.40;;;;;;10287775;28;20109;-87
2022/05/30 14:10:44;;;;;;;1.38;0.30;;;19.80;58.40;;;;;;10290132;28;20058;-87
2022/05/30 14:16:01;;;;;;;1.70;0.50;;;19.70;58.20;;;;;;10291347;28;20133;-86
2022/05/30 14:21:08;;;;;;;0.77;0.30;;;19.50;57.70;;;;;;10309201;28;20046;-87
2022/05/30 14:26:22;;;;;;;1.48;0.20;;;19.50;58.50;;;;;;10303774;28;20073;-87
2022/05/30 14:31:30;;;;;;;0.82;0.40;;;20.10;58.90;;;;;;10293675;28;20058;-88
2022/05/30 14:36:46;;;;;;;1.00;0.28;;;20.90;56.70;;;;;;10292206;28;20558;-88
2022/05/30 14:41:58;;;;;;;1.42;0.20;;;21.80;54.70;;;;;;10287357;28;20062;-88
2022/05/30 14:47:04;;;;;;;0.38;0.20;;;22.30;52.40;;;;;;10274798;28;20408;-88
2022/05/30 14:52:07;;;;;;;0.77;0.10;;;22.00;52.60;;;;;;10283314;28;20039;-88
2022/05/30 14:57:20;;;;;;;1.63;0.20;;;21.60;52.70;;;;;;10307640;28;20378;-87
2022/05/30 15:07:44;;;;;;;0.22;0.20;;;20.80;54.20;;;;;;10300296;28;20382;-87
2022/05/30 15:12:46;;;;;;;0.82;0.40;;;20.20;54.70;;;;;;10289152;28;20138;-87
2022/05/30 15:17:54;;;;;;;1.60;0.30;;;20.20;54.50;;;;;;10299528;28;20050;-89
2022/05/30 15:22:58;;;;;;;0.77;0.10;;;19.90;53.50;;;;;;10287708;28;20424;-87
2022/05/30 15:28:00;;;;;;;3.25;0.70;;;19.60;53.90;;;;;;10305888;28;20062;-87
2022/05/30 15:33:02;;;;;;;1.65;0.90;;;19.50;56.40;;;;;;10281607;28;20089;-87
2022/05/30 15:38:04;;;;;;;2.40;0.60;;;19.80;55.10;;;;;;10291063;28;20054;-86
2022/05/30 15:43:06;;;;;;;1.00;0.50;;;20.40;54.70;;;;;;10299756;28;20073;-87
2022/05/30 15:48:08;;;;;;;1.55;0.90;;;20.90;52.30;;;;;;10291722;28;20116;-87
2022/05/30 15:58:58;;;;;;;1.08;0.20;;;22.00;50.10;;;;;;10300342;28;20058;-87
2022/05/30 16:04:00;;;;;;;1.73;0.20;;;22.10;48.60;;;;;;10304898;28;20055;-87
2022/05/30 16:09:04;;;;;;;0.40;0.20;;;22.60;47.60;;;;;;10288097;28;20043;-87
2022/05/30 16:14:06;;;;;;;2.05;0.30;;;23.00;46.80;;;;;;10287401;28;20109;-87
2022/05/30 16:19:08;;;;;;;3.95;0.20;;;22.40;46.80;;;;;;10294025;28;20054;-88
2022/05/30 16:24:11;;;;;;;0.30;0.30;;;22.00;47.40;;;;;;10279859;28;20065;-87
2022/05/30 16:29:16;;;;;;;0.73;0.30;;;21.60;48.80;;;;;;10292214;28;20101;-87
2022/05/30 16:34:17;;;;;;;0.30;0.20;;;21.10;49.50;;;;;;10306715;28;20054;-87
2022/05/30 16:39:19;;;;;;;0.20;0.10;;;21.00;50.40;;;;;;10302965;28;20059;-87
2022/05/30 16:44:23;;;;;;;1.20;0.20;;;21.20;50.50;;;;;;10281327;28;20038;-87
2022/05/30 16:49:30;;;;;;;3.25;0.30;;;20.70;50.40;;;;;;10304107;28;20528;-87
2022/05/30 16:54:32;;;;;;;1.10;0.13;;;21.10;50.40;;;;;;10286289;28;20047;-87
2022/05/30 16:59:34;;;;;;;1.45;0.22;;;21.70;48.80;;;;;;10287547;28;20519;-87
2022/05/30 17:04:36;;;;;;;0.77;0.20;;;21.80;48.10;;;;;;10300576;28;20561;-88
2022/05/30 17:09:38;;;;;;;0.52;0.20;;;22.00;48.40;;;;;;10294542;28;20120;-87
2022/05/30 17:14:40;;;;;;;1.33;0.30;;;21.40;47.70;;;;;;10303022;28;20493;-87
2022/05/30 17:19:47;;;;;;;0.28;0.10;;;21.30;48.80;;;;;;10287245;28;20148;-87
2022/05/30 17:24:49;;;;;;;0.88;0.20;;;21.40;48.50;;;;;;10275419;28;20057;-88
2022/05/30 17:29:51;;;;;;;4.03;0.15;;;21.30;48.10;;;;;;10296403;28;20046;-88
2022/05/30 17:34:58;;;;;;;1.23;0.20;;;21.00;49.50;;;;;;10282233;28;20054;-88
2022/05/30 17:40:00;;;;;;;0.82;0.15;;;21.10;49.60;;;;;;10280620;28;20057;-88
2022/05/30 17:45:01;;;;;;;0.40;0.20;;;21.20;48.60;;;;;;10279232;28;20054;-87
2022/05/30 17:50:12;;;;;;;0.85;0.30;;;21.00;49.60;;;;;;10293315;28;20049;-88
2022/05/30 17:55:15;;;;;;;1.33;0.30;;;20.80;50.30;;;;;;10295485;28;20058;-88
2022/05/30 18:00:20;;;;;;;1.08;0.20;;;20.60;50.60;;;;;;10294533;28;20118;-87
2022/05/30 18:05:22;;;;;;;1.80;0.40;;;20.40;51.30;;;;;;10280237;28;20050;-87
2022/05/30 18:10:38;;;;;;;0.43;0.20;;;20.20;52.40;;;;;;10273813;28;20042;-88
2022/05/30 18:16:05;;;;;;;0.38;0.20;;;19.80;52.90;;;;;;10299388;28;20066;-87
2022/05/30 18:21:17;;;;;;;2.95;0.55;;;19.20;54.40;;;;;;10288318;28;20047;-88
2022/05/30 18:26:20;;;;;;;9.02;0.30;;;18.90;55.60;;;;;;10283180;28;20049;-88
2022/05/30 18:31:48;;;;;;;2.05;0.20;;;18.50;56.60;;;;;;10277743;28;20050;-87
2022/05/30 18:37:00;;;;;;;0.40;0.28;;;18.20;58.20;;;;;;10293808;28;20117;-87
2022/05/30 18:42:29;;;;;;;0.88;0.30;;;17.90;58.60;;;;;;10289169;28;20074;-87
2022/05/30 18:47:41;;;;;;;0.90;0.20;;;17.50;59.60;;;;;;10306897;28;20093;-88
2022/05/30 18:53:09;;;;;;;1.40;0.20;;;17.20;60.80;;;;;;10290648;28;20046;-87
2022/05/30 18:58:17;;;;;;;1.40;0.38;;;16.90;62.50;;;;;;10277813;28;20051;-87
2022/05/30 19:03:27;;;;;;;0.40;0.28;;;16.70;64.00;;;;;;10293168;28;20047;-88
2022/05/30 19:08:30;;;;;;;3.83;0.30;;;16.50;65.00;;;;;;10298495;28;20104;-87
2022/05/30 19:13:54;;;;;;;0.65;0.38;;;16.30;66.40;;;;;;10297269;28;20070;-88
2022/05/30 19:19:22;;;;;;;3.42;0.40;;;16.10;67.20;;;;;;10301942;28;20078;-87
2022/05/30 19:24:24;;;;;;;0.65;0.30;;;15.80;68.50;;;;;;10315535;28;20050;-87
2022/05/30 19:29:28;;;;;;;1.25;0.30;;;15.60;69.90;;;;;;10318601;28;20123;-87
2022/05/30 19:34:33;;;;;;;1.48;0.30;;;15.30;70.40;;;;;;10297015;28;20439;-88
2022/05/30 19:39:35;;;;;;;3.25;0.30;;;15.20;70.80;;;;;;10326601;28;20051;-87
2022/05/30 19:44:37;;;;;;;4.13;0.30;;;15.00;72.00;;;;;;10321181;28;20042;-87
2022/05/30 19:49:40;;;;;;;0.98;0.40;;;14.80;72.70;;;;;;10327162;28;20131;-86
2022/05/30 19:54:41;;;;;;;2.20;0.40;;;14.70;73.80;;;;;;10323559;28;20106;-87
2022/05/30 19:59:44;;;;;;;0.82;0.40;;;14.40;75.00;;;;;;10330729;28;20058;-88
2022/05/30 20:04:46;;;;;;;1.33;0.40;;;14.20;76.30;;;;;;10333391;28;20094;-86
2022/05/30 20:09:49;;;;;;;1.67;0.40;;;14.00;78.70;;;;;;10341138;28;20058;-86
2022/05/30 20:14:51;;;;;;;3.47;0.47;;;13.70;79.60;;;;;;10336149;28;20109;-86
2022/05/30 20:19:59;;;;;;;3.80;0.40;;;13.50;80.90;;;;;;10314193;28;20066;-91
2022/05/30 20:25:01;;;;;;;0.68;0.30;;;13.30;81.70;;;;;;10321392;28;20050;-87
2022/05/30 20:30:04;;;;;;;3.67;0.30;;;13.10;82.90;;;;;;10327550;28;20043;-85
2022/05/30 20:35:07;;;;;;;1.00;0.40;;;12.90;84.60;;;;;;10311909;28;20046;-85
2022/05/30 20:40:10;;;;;;;5.55;0.40;;;12.70;87.00;;;;;;10311708;28;20043;-85
2022/05/30 20:45:12;;;;;;;2.10;0.47;;;12.60;89.30;;;;;;10297659;28;20053;-85
2022/05/30 20:50:21;;;;;;;2.38;0.35;;;12.30;91.20;;;;;;10300749;28;20050;-85
2022/05/30 20:55:23;;;;;;;1.70;0.50;;;12.20;92.60;;;;;;10312748;28;20065;-85
2022/05/30 21:00:25;;;;;;;1.10;0.47;;;12.10;93.80;;;;;;10306723;28;20054;-85
2022/05/30 21:05:28;;;;;;;3.70;0.85;;;12.00;93.80;;;;;;10309563;28;20046;-85
2022/05/30 21:10:30;;;;;;;1.67;0.50;;;11.90;94.90;;;;;;10298607;28;20045;-85
2022/05/30 21:15:33;;;;;;;3.58;0.50;;;11.90;96.50;;;;;;10298997;28;20143;-85
2022/05/30 21:20:36;;;;;;;2.20;0.35;;;11.80;96.60;;;;;;10283568;28;20061;-85
2022/05/30 21:25:41;;;;;;;0.73;0.73;;;11.60;96.20;;;;;;10284601;28;20605;-86
2022/05/30 21:30:46;;;;;;;1.42;0.52;;;11.50;96.40;;;;;;10287754;28;20046;-86
2022/05/30 21:35:48;;;;;;;1.48;0.40;;;11.40;97.20;;;;;;10303155;28;20058;-85
2022/05/30 21:40:50;;;;;;;1.70;0.55;;;11.40;98.10;;;;;;10278966;28;20690;-85
2022/05/30 21:45:53;;;;;;;4.57;0.50;;;11.30;98.40;;;;;;10271778;28;20061;-85
2022/05/30 21:50:55;;;;;;;3.13;0.63;;;11.20;99.30;;;;;;10288433;28;20058;-85
2022/05/30 21:55:57;;;;;;;0.80;0.50;;;11.10;99.80;;;;;;10289495;28;20513;-85
2022/05/30 22:00:59;;;;;;;1.85;0.43;;;11.00;99.90;;;;;;10274284;28;20058;-85
2022/05/30 22:06:08;;;;;;;0.93;0.43;;;11.00;99.90;;;;;;10271525;28;20138;-85
2022/05/30 22:11:14;;;;;;;1.65;0.45;;;10.90;99.90;;;;;;10299490;28;20062;-85
2022/05/30 22:16:26;;;;;;;1.35;0.50;;;10.80;99.90;;;;;;10302995;28;20053;-86
2022/05/30 22:21:29;;;;;;;1.58;0.40;;;10.80;99.90;;;;;;10284446;28;20449;-84
2022/05/30 22:26:33;;;;;;;2.08;0.35;;;10.80;99.90;;;;;;10303050;28;20061;-85
2022/05/30 22:31:34;;;;;;;2.17;0.40;;;10.80;99.90;;;;;;10285270;28;20050;-85
2022/05/30 22:36:37;;;;;;;2.55;0.57;;;10.70;99.90;;;;;;10297317;28;20085;-85
2022/05/30 22:41:38;;;;;;;0.93;0.50;;;10.70;99.90;;;;;;10281807;28;20065;-85
2022/05/30 22:46:40;;;;;;;2.35;0.50;;;10.50;99.90;;;;;;10283472;28;20119;-85
2022/05/30 22:51:45;;;;;;;3.28;0.40;;;10.50;99.90;;;;;;10273275;28;20090;-85
2022/05/30 22:56:47;;;;;;;0.65;0.30;;;10.40;99.90;;;;;;10301298;28;20125;-85
2022/05/30 23:01:49;;;;;;;1.23;0.40;;;10.30;99.90;;;;;;10285711;28;20054;-85
2022/05/30 23:06:51;;;;;;;1.45;0.60;;;10.20;99.90;;;;;;10286205;28;20551;-85
2022/05/30 23:11:53;;;;;;;1.30;0.40;;;10.10;99.90;;;;;;10284630;28;20055;-85
2022/05/30 23:17:00;;;;;;;2.75;0.38;;;10.10;99.90;;;;;;10286956;28;20484;-85
2022/05/30 23:22:03;;;;;;;3.70;0.50;;;10.00;99.90;;;;;;10280079;28;20051;-86
2022/05/30 23:27:06;;;;;;;5.38;0.40;;;10.00;99.90;;;;;;10269521;28;20046;-86
2022/05/30 23:32:08;;;;;;;1.63;0.45;;;10.00;99.90;;;;;;10281363;28;20062;-86
2022/05/30 23:37:10;;;;;;;1.45;0.32;;;9.90;99.90;;;;;;10285226;28;20085;-85
2022/05/30 23:47:34;;;;;;;2.92;0.70;;;9.70;99.90;;;;;;10300536;28;20481;-86
2022/05/30 23:52:35;;;;;;;4.20;0.43;;;9.70;99.90;;;;;;10293366;28;20058;-85
2022/05/30 23:57:38;;;;;;;0.98;0.40;;;9.60;99.90;;;;;;10264508;28;20042;-85
